Time,TemperatureF,DewpointF,PressureIn,WindDirection,WindDirectionDegrees,WindSpeedMPH,WindSpeedGustMPH,Humidity,HourlyPrecipIn,Conditions,Clouds,dailyrainin,SoftwareType,DateUTC
2013-04-29 00:00:00,48.9,46.4,29.76,SE,127,0.0,0.0,91,0.00,,---,0.00,VWS V14.01,2013-04-29 05:00:00,
2013-04-29 00:39:00,48.8,46.6,29.76,SE,127,0.0,0.0,92,0.00,,---,0.00,VWS V14.01,2013-04-29 05:39:00,
2013-04-29 01:09:00,48.3,46.1,29.75,SE,127,0.0,0.0,92,0.00,,---,0.00,VWS V14.01,2013-04-29 06:09:00,
2013-04-29 01:39:00,48.2,46.3,29.75,SE,127,0.0,0.0,93,0.00,,---,0.00,VWS V14.01,2013-04-29 06:39:00,
2013-04-29 02:09:00,47.8,45.9,29.74,SE,127,0.0,0.0,93,0.00,,---,0.00,VWS V14.01,2013-04-29 07:09:00,
2013-04-29 02:39:00,47.7,46.1,29.74,SE,127,0.0,0.0,94,0.00,,---,0.00,VWS V14.01,2013-04-29 07:39:00,
2013-04-29 03:09:00,47.5,45.9,29.74,SE,127,0.0,0.0,94,0.00,,---,0.00,VWS V14.01,2013-04-29 08:09:00,
2013-04-29 03:39:00,47.6,46.2,29.73,SE,127,0.0,0.0,95,0.00,,---,0.00,VWS V14.01,2013-04-29 08:39:00,
2013-04-29 04:09:00,47.3,45.9,29.73,SE,127,0.0,0.0,95,0.00,,---,0.00,VWS V14.01,2013-04-29 09:09:00,
2013-04-29 04:39:00,47.7,46.3,29.74,SE,127,0.0,0.0,95,0.00,,---,0.00,VWS V14.01,2013-04-29 09:39:00,
2013-04-29 05:09:00,47.4,46.0,29.76,SE,127,0.0,0.0,95,0.00,,---,0.00,VWS V14.01,2013-04-29 10:09:00,
2013-04-29 05:39:00,47.6,46.2,29.77,SE,127,0.0,0.0,95,0.00,,---,0.00,VWS V14.01,2013-04-29 10:39:00,
2013-04-29 06:09:00,47.3,46.2,29.77,SE,127,0.0,0.0,96,0.00,,---,0.00,VWS V14.01,2013-04-29 11:09:00,
2013-04-29 06:39:00,48.1,47.0,29.78,SE,127,0.0,0.0,96,0.00,,---,0.00,VWS V14.01,2013-04-29 11:39:00,
2013-04-29 07:09:00,49.6,48.5,29.78,SE,127,0.0,1.0,96,0.00,,---,0.00,VWS V14.01,2013-04-29 12:09:00,
2013-04-29 07:39:00,52.3,51.2,29.79,SSW,212,0.0,5.0,96,0.00,,---,0.00,VWS V14.01,2013-04-29 12:39:00,
2013-04-29 08:09:00,55.4,52.8,29.79,SSW,213,2.0,5.0,91,0.00,,---,0.00,VWS V14.01,2013-04-29 13:09:00,
2013-04-29 08:39:00,57.0,52.5,29.78,SW,226,3.0,10.0,85,0.00,,---,0.00,VWS V14.01,2013-04-29 13:39:00,
2013-04-29 09:09:00,58.6,52.8,29.78,West,264,0.0,7.0,81,0.00,,---,0.00,VWS V14.01,2013-04-29 14:09:00,
2013-04-29 09:39:00,60.3,54.1,29.77,West,271,0.0,7.0,80,0.00,,---,0.00,VWS V14.01,2013-04-29 14:39:00,
2013-04-29 10:09:00,61.8,53.8,29.77,WSW,256,0.0,10.0,75,0.00,,---,0.00,VWS V14.01,2013-04-29 15:09:00,
2013-04-29 10:39:00,62.5,53.7,29.77,WNW,290,4.0,12.0,73,0.00,,---,0.00,VWS V14.01,2013-04-29 15:39:00,
2013-04-29 11:09:00,63.8,52.7,29.76,WNW,290,5.0,11.0,67,0.00,,---,0.00,VWS V14.01,2013-04-29 16:09:00,
2013-04-29 11:39:00,65.9,53.0,29.75,South,189,11.0,12.0,63,0.00,,---,0.00,VWS V14.01,2013-04-29 16:39:00,
2013-04-29 12:09:00,67.2,53.3,29.75,South,177,16.0,16.0,61,0.00,,---,0.00,VWS V14.01,2013-04-29 17:09:00,
2013-04-29 12:39:00,67.4,51.2,29.75,SSW,196,6.0,19.0,56,0.00,,---,0.00,VWS V14.01,2013-04-29 17:39:00,
2013-04-29 13:09:00,68.6,51.3,29.74,SSW,196,6.0,15.0,54,0.00,,---,0.00,VWS V14.01,2013-04-29 18:09:00,
2013-04-29 13:39:00,68.6,51.8,29.74,WNW,290,6.0,20.0,55,0.00,,---,0.00,VWS V14.01,2013-04-29 18:39:00,
2013-04-29 14:10:00,68.2,50.9,29.73,SSW,213,7.0,13.0,54,0.00,,---,0.00,VWS V14.01,2013-04-29 19:10:00,
2013-04-29 14:39:00,68.1,51.8,29.72,SSW,192,8.0,14.0,56,0.00,,---,0.00,VWS V14.01,2013-04-29 19:39:00,
2013-04-29 15:00:00,66.4,52.1,29.72,SSW,200,8.0,13.0,60,0.01,,---,0.01,VWS V14.01,2013-04-29 20:00:00,
2013-04-29 15:39:00,64.2,53.4,29.67,South,173,0.0,13.0,68,0.03,,---,0.03,VWS V14.01,2013-04-29 20:39:00,
2013-04-29 16:10:00,67.0,53.6,29.69,SSE,167,6.0,12.0,62,0.03,,---,0.03,VWS V14.01,2013-04-29 21:10:00,
2013-04-29 16:39:00,67.1,52.8,29.69,SW,231,4.0,13.0,60,0.02,,---,0.03,VWS V14.01,2013-04-29 21:39:00,
2013-04-29 17:10:00,66.5,54.0,29.69,SE,134,4.0,9.0,64,0.00,,---,0.03,VWS V14.01,2013-04-29 22:10:00,
2013-04-29 17:39:00,67.7,53.8,29.68,SSE,155,0.0,10.0,61,0.00,,---,0.03,VWS V14.01,2013-04-29 22:39:00,
2013-04-29 18:10:00,67.3,52.5,29.67,ESE,120,6.0,20.0,59,0.00,,---,0.03,VWS V14.01,2013-04-29 23:10:00,
2013-04-29 18:39:00,66.8,51.6,29.67,ESE,108,7.0,19.0,58,0.00,,---,0.03,VWS V14.01,2013-04-29 23:39:00,
2013-04-29 19:10:00,64.7,51.0,29.67,SE,130,8.0,18.0,61,0.00,,---,0.03,VWS V14.01,2013-04-30 00:10:00,
2013-04-29 19:39:00,63.5,50.7,29.67,ESE,118,3.0,16.0,63,0.00,,---,0.03,VWS V14.01,2013-04-30 00:39:00,
2013-04-29 20:10:00,62.9,51.4,29.68,SE,127,4.0,11.0,66,0.00,,---,0.03,VWS V14.01,2013-04-30 01:10:00,
2013-04-29 20:40:00,62.4,51.3,29.68,SE,142,0.0,10.0,67,0.00,,---,0.03,VWS V14.01,2013-04-30 01:40:00,
2013-04-29 21:10:00,62.1,51.8,29.69,SE,144,0.0,6.0,69,0.00,,---,0.03,VWS V14.01,2013-04-30 02:10:00,
2013-04-29 21:40:00,61.7,51.8,29.68,SE,129,0.0,7.0,70,0.00,,---,0.03,VWS V14.01,2013-04-30 02:40:00,
2013-04-29 22:10:00,61.5,52.0,29.68,SE,130,0.0,5.0,71,0.00,,---,0.03,VWS V14.01,2013-04-30 03:10:00,
2013-04-29 22:40:00,61.6,52.5,29.68,SE,140,0.0,7.0,72,0.00,,---,0.03,VWS V14.01,2013-04-30 03:40:00,
2013-04-29 23:10:00,62.6,53.8,29.68,South,178,0.0,9.0,73,0.00,,---,0.03,VWS V14.01,2013-04-30 04:10:00,
2013-04-29 23:40:00,63.0,54.6,29.66,South,178,12.0,14.0,74,0.00,,---,0.03,VWS V14.01,2013-04-30 04:40:00,